Depesze METAR lotnisk w Polsce

METAR – format kodowanego raportu o pogodzie używany w meteorologii lotniczej i prognozie pogody. METAR jest akronimem od ang. Meteorological Aerodrome Report. Typowy METAR zawiera informację o temperaturze, ciśnieniu, temperaturze punktu rosy, sile i kierunku wiatru, opadzie, pokrywie chmur, wysokości podstawy chmur, widzialności, lecz może zawierać też inne informacje (np. stan dróg startowych).

Warszawa-Okęcie (EPWA)

METAR = EPWA 151300Z 10013KT 8000 OVC007 08/07 Q1014 NOSIG

STACJA......... EPWA - Warszawa-Okęcie (WAW)
POMIAR......... Fri Nov 15, 14:00 CET
WIATR.......... wschodni (E) z prędkością 24 km/h
WIDZIALNOŚĆ.... 8000 metrów
CHMURY......... zachmurzenie całkowite (8/8)
TEMPERATURA.... 8°C
T.PUNKTU ROSY.. 7°C
WILGOTNOŚĆ..... 93%
T.ODCZUWALNA... 4°C
CIŚNIENIE...... 1014 hPa
CIŚN.BEZWZGL... 1001 hPa
PROGNOZA....... bez nagłych zmian w ciągu 2h

Sprawdź też: Prognoza pogody Warszawa

Warszawa-Modlin (EPMO)

METAR = EPMO 151230Z 10010KT 8000 OVC007 09/09 Q1014 =

STACJA......... EPMO - Warszawa-Modlin (WMI)
POMIAR......... Fri Nov 15, 13:30 CET
WIATR.......... wschodni (E) z prędkością 19 km/h
WIDZIALNOŚĆ.... 8000 metrów
CHMURY......... zachmurzenie całkowite (8/8)
TEMPERATURA.... 9°C
T.PUNKTU ROSY.. 9°C
WILGOTNOŚĆ..... 100%
T.ODCZUWALNA... 6°C
CIŚNIENIE...... 1014 hPa
CIŚN.BEZWZGL... 1001 hPa

Sprawdź też: Prognoza pogody Nowy Dwór Mazowiecki

Kraków-Balice (EPKK)

METAR = EPKK 151300Z 07007KT 3000 BR SCT003 OVC005 10/09 Q1011

STACJA......... EPKK - Kraków-Balice (KRK)
POMIAR......... Fri Nov 15, 14:00 CET
WIATR.......... wschodni północno-wschodni (ENE) z prędkością 13 km/h
WIDZIALNOŚĆ.... 3000 metrów
WARUNKI........ zamglenie 
CHMURY......... zachmurzenie całkowite (8/8)
TEMPERATURA.... 10°C
T.PUNKTU ROSY.. 9°C
WILGOTNOŚĆ..... 94%
T.ODCZUWALNA... 8°C
CIŚNIENIE...... 1011 hPa
CIŚN.BEZWZGL... 982 hPa

Sprawdź też: Prognoza pogody Kraków

Łódź-Lublinek (EPLL)

METAR = EPLL 151300Z 10008KT 070V140 5000 BR BKN003 OVC004 10/09 Q1012

STACJA......... EPLL - Łódź-Lublinek (LCJ)
POMIAR......... Fri Nov 15, 14:00 CET
WIATR.......... wschodni (E) z prędkością 15 km/h
WIDZIALNOŚĆ.... 5000 metrów
WARUNKI........ zamglenie 
CHMURY......... zachmurzenie całkowite (8/8)
TEMPERATURA.... 10°C
T.PUNKTU ROSY.. 9°C
WILGOTNOŚĆ..... 94%
T.ODCZUWALNA... 8°C
CIŚNIENIE...... 1012 hPa
CIŚN.BEZWZGL... 990 hPa

Sprawdź też: Prognoza pogody Łódź

Wrocław-Strachowice (EPWR)

METAR = EPWR 151300Z 13018KT CAVOK 12/07 Q1007

STACJA......... EPWR - Wrocław-Strachowice (WRO)
POMIAR......... Fri Nov 15, 14:00 CET
WIATR.......... południowo wschodni (SE) z prędkością 33 km/h
WIDZIALNOŚĆ.... powyżej 10 kilometrów
CHMURY......... bezchmurne niebo
TEMPERATURA.... 12°C
T.PUNKTU ROSY.. 7°C
WILGOTNOŚĆ..... 72%
CIŚNIENIE...... 1007 hPa
CIŚN.BEZWZGL... 992 hPa

Sprawdź też: Prognoza pogody Wrocław

Katowice-Pyrzowice (EPKT)

METAR = EPKT 151300Z 10011KT CAVOK 10/08 Q1011

STACJA......... EPKT - Katowice-Pyrzowice (KTW)
POMIAR......... Fri Nov 15, 14:00 CET
WIATR.......... wschodni (E) z prędkością 20 km/h
WIDZIALNOŚĆ.... powyżej 10 kilometrów
CHMURY......... bezchmurne niebo
TEMPERATURA.... 10°C
T.PUNKTU ROSY.. 8°C
WILGOTNOŚĆ..... 88%
T.ODCZUWALNA... 7°C
CIŚNIENIE...... 1011 hPa
CIŚN.BEZWZGL... 975 hPa

Sprawdź też: Prognoza pogody Katowice

Gdańsk (EPGD)

METAR = EPGD 151300Z 08008KT 5000 BR OVC003 07/06 Q1014

STACJA......... EPGD - Gdańsk im. Lecha Wałęsy (GDN)
POMIAR......... Fri Nov 15, 14:00 CET
WIATR.......... wschodni (E) z prędkością 15 km/h
WIDZIALNOŚĆ.... 5000 metrów
WARUNKI........ zamglenie 
CHMURY......... zachmurzenie całkowite (8/8)
TEMPERATURA.... 7°C
T.PUNKTU ROSY.. 6°C
WILGOTNOŚĆ..... 93%
T.ODCZUWALNA... 4°C
CIŚNIENIE...... 1014 hPa
CIŚN.BEZWZGL... 996 hPa

Sprawdź też: Prognoza pogody Gdańsk

Poznań-Ławica (EPPO)

METAR = EPPO 151300Z 10015KT 7000 OVC005 08/07 Q1009

STACJA......... EPPO - Poznań-Ławica (POZ)
POMIAR......... Fri Nov 15, 14:00 CET
WIATR.......... wschodni (E) z prędkością 28 km/h
WIDZIALNOŚĆ.... 7000 metrów
CHMURY......... zachmurzenie całkowite (8/8)
TEMPERATURA.... 8°C
T.PUNKTU ROSY.. 7°C
WILGOTNOŚĆ..... 93%
T.ODCZUWALNA... 4°C
CIŚNIENIE...... 1009 hPa
CIŚN.BEZWZGL... 998 hPa

Sprawdź też: Prognoza pogody Poznań

Rzeszów-Jasionka (EPRZ)

METAR = EPRZ 151300Z 10012KT 5000 BR OVC005 09/09 Q1013

STACJA......... EPRZ - Rzeszów-Jasionka (RZE)
POMIAR......... Fri Nov 15, 14:00 CET
WIATR.......... wschodni (E) z prędkością 22 km/h
WIDZIALNOŚĆ.... 5000 metrów
WARUNKI........ zamglenie 
CHMURY......... zachmurzenie całkowite (8/8)
TEMPERATURA.... 9°C
T.PUNKTU ROSY.. 9°C
WILGOTNOŚĆ..... 100%
T.ODCZUWALNA... 6°C
CIŚNIENIE...... 1013 hPa
CIŚN.BEZWZGL... 987 hPa

Sprawdź też: Prognoza pogody Rzeszów

Szczecin-Goleniów (EPSC)

METAR = EPSC 151300Z 10010KT 9999 OVC008 08/06 Q1009

STACJA......... EPSC - Szczecin-Goleniów (SZZ)
POMIAR......... Fri Nov 15, 14:00 CET
WIATR.......... wschodni (E) z prędkością 19 km/h
WIDZIALNOŚĆ.... powyżej 10 kilometrów
CHMURY......... zachmurzenie całkowite (8/8)
TEMPERATURA.... 8°C
T.PUNKTU ROSY.. 6°C
WILGOTNOŚĆ..... 87%
T.ODCZUWALNA... 5°C
CIŚNIENIE...... 1009 hPa
CIŚN.BEZWZGL... 1003 hPa

Sprawdź też: Prognoza pogody Szczecin

Lublin-Świdnik (EPLB)

METAR = EPLB 151230Z 12007KT 7000 OVC009 08/08 Q1015 =

STACJA......... EPLB - Lublin-Świdnik (LUZ)
POMIAR......... Fri Nov 15, 13:30 CET
WIATR.......... wschodni południowo-wschodni (ESE) z prędkością 13 km/h
WIDZIALNOŚĆ.... 7000 metrów
CHMURY......... zachmurzenie całkowite (8/8)
TEMPERATURA.... 8°C
T.PUNKTU ROSY.. 8°C
WILGOTNOŚĆ..... 100%
T.ODCZUWALNA... 6°C
CIŚNIENIE...... 1015 hPa
CIŚN.BEZWZGL... 990 hPa

Sprawdź też: Prognoza pogody Lublin

Bydgoszcz-Szwederowo (EPBY)

METAR = EPBY 151230Z 10010KT 4600 BR OVC003 08/08 Q1012 =

STACJA......... EPBY - Bydgoszcz-Szwederowo (BZG)
POMIAR......... Fri Nov 15, 13:30 CET
WIATR.......... wschodni (E) z prędkością 19 km/h
WIDZIALNOŚĆ.... 4600 metrów
WARUNKI........ zamglenie 
CHMURY......... zachmurzenie całkowite (8/8)
TEMPERATURA.... 8°C
T.PUNKTU ROSY.. 8°C
WILGOTNOŚĆ..... 100%
T.ODCZUWALNA... 5°C
CIŚNIENIE...... 1012 hPa
CIŚN.BEZWZGL... 1003 hPa

Sprawdź też: Prognoza pogody Bydgoszcz

Zielona Góra-Babimost (EPZG)

METAR = EPZG 151230Z 07011KT 4000 BR BKN013 09/07 Q1008 =

STACJA......... EPZG - Zielona Góra-Babimost (IEG)
POMIAR......... Fri Nov 15, 13:30 CET
WIATR.......... wschodni północno-wschodni (ENE) z prędkością 20 km/h
WIDZIALNOŚĆ.... 4000 metrów
WARUNKI........ zamglenie 
CHMURY......... zachmurzenie średnie (5/8-7/8)
TEMPERATURA.... 9°C
T.PUNKTU ROSY.. 7°C
WILGOTNOŚĆ..... 87%
T.ODCZUWALNA... 6°C
CIŚNIENIE...... 1008 hPa
CIŚN.BEZWZGL... 1001 hPa

Sprawdź też: Prognoza pogody Zielona Góra

Szymany Olsztyn-Mazury (EPSY)

METAR = EPSY 151230Z 11004KT 060V180 9999 BKN007 OVC008 09/08 Q1015=

STACJA......... EPSY - Olsztyn-Mazury (SZY)
POMIAR......... Fri Nov 15, 13:30 CET
WIATR.......... wschodni południowo-wschodni (ESE) z prędkością 7 km/h
WIDZIALNOŚĆ.... powyżej 10 kilometrów
CHMURY......... zachmurzenie całkowite (8/8)
TEMPERATURA.... 9°C
T.PUNKTU ROSY.. 8°C
WILGOTNOŚĆ..... 94%
T.ODCZUWALNA... 8°C
CIŚNIENIE...... 1015 hPa
CIŚN.BEZWZGL... 998 hPa

Sprawdź też: Prognoza pogody Olsztyn